createdAt,value
2019-01-30T00:00:30.538Z,96250.13
2019-01-30T00:03:08.948Z,96242.80
2019-01-30T00:05:44.277Z,96237.64
2019-01-30T00:08:11.187Z,96232.30
2019-01-30T00:10:38.609Z,96232.17
2019-01-30T00:13:06.765Z,96225.72
2019-01-30T00:15:37.754Z,96232.62
2019-01-30T00:18:05.932Z,96228.17
2019-01-30T00:20:36.708Z,96228.80
2019-01-30T00:23:06.464Z,96222.23
2019-01-30T00:25:41.152Z,96216.80
2019-01-30T00:28:08.714Z,96212.80
2019-01-30T00:30:36.125Z,96214.81
2019-01-30T00:33:05.423Z,96207.70
2019-01-30T00:35:32.341Z,96205.86
2019-01-30T00:38:05.327Z,96198.11
2019-01-30T00:40:35.811Z,96193.87
2019-01-30T00:43:02.409Z,96193.19
2019-01-30T00:45:31.367Z,96190.03
2019-01-30T00:48:07.003Z,96185.41
2019-01-30T00:50:41.822Z,96184.31
2019-01-30T00:53:09.109Z,96186.25
2019-01-30T00:55:40.227Z,96185.91
2019-01-30T00:58:08.026Z,96184.09
2019-01-30T01:00:34.695Z,96183.23
2019-01-30T01:03:01.337Z,96176.09
2019-01-30T01:05:28.042Z,96174.10
2019-01-30T01:07:54.990Z,96168.97
2019-01-30T01:10:21.598Z,96162.51
2019-01-30T01:12:52.831Z,96155.77
2019-01-30T01:15:22.751Z,96152.98
2019-01-30T01:17:52.918Z,96155.74
2019-01-30T01:20:28.407Z,96149.84
2019-01-30T01:22:51.357Z,96140.11
2019-01-30T01:25:19.313Z,96141.00
2019-01-30T01:27:52.181Z,96140.08
2019-01-30T01:30:25.375Z,96141.56
2019-01-30T01:32:48.899Z,96138.77
2019-01-30T01:35:16.818Z,96129.42
2019-01-30T01:37:44.902Z,96129.99
2019-01-30T01:40:14.419Z,96124.33
2019-01-30T01:42:41.280Z,96121.13
2019-01-30T01:45:11.091Z,96115.01
2019-01-30T01:47:41.792Z,96111.00
2019-01-30T01:50:09.040Z,96109.66
2019-01-30T01:52:36.673Z,96108.63
2019-01-30T01:55:07.437Z,96101.55
2019-01-30T01:57:35.088Z,96104.97
2019-01-30T02:00:03.947Z,96099.83
2019-01-30T02:02:30.747Z,96097.34
2019-01-30T02:04:57.938Z,96095.20
2019-01-30T02:07:25.455Z,96089.69
2019-01-30T02:09:52.081Z,96077.16
2019-01-30T02:12:18.717Z,96076.56
2019-01-30T02:14:46.644Z,96076.82
2019-01-30T02:17:14.745Z,96067.65
2019-01-30T02:19:41.448Z,96072.98
2019-01-30T02:22:08.436Z,96077.40
2019-01-30T02:24:35.099Z,96073.11
2019-01-30T02:27:01.832Z,96068.66
2019-01-30T02:29:28.999Z,96063.89
2019-01-30T02:31:55.794Z,96062.78
2019-01-30T02:34:23.058Z,96053.78
2019-01-30T02:36:50.095Z,96053.41
2019-01-30T02:41:48.952Z,96049.91
2019-01-30T02:44:15.936Z,96041.91
2019-01-30T02:46:42.595Z,96046.94
2019-01-30T02:49:11.774Z,96044.66
2019-01-30T02:51:42.607Z,96038.64
2019-01-30T02:54:12.382Z,96035.67
2019-01-30T02:59:27.964Z,96034.66
2019-01-30T03:01:54.590Z,96024.31
2019-01-30T03:04:21.558Z,96025.08
2019-01-30T03:06:48.576Z,96018.20
2019-01-30T03:09:15.920Z,96012.16
2019-01-30T03:11:42.726Z,96016.48
2019-01-30T03:14:10.158Z,96016.98
2019-01-30T03:16:36.944Z,96012.48
2019-01-30T03:19:03.720Z,96015.33
2019-01-30T03:21:30.361Z,96013.97
2019-01-30T03:23:57.010Z,96011.80
2019-01-30T03:26:23.923Z,96008.13
2019-01-30T03:28:50.835Z,96006.59
2019-01-30T03:31:19.372Z,96008.40
2019-01-30T03:33:46.384Z,96006.23
2019-01-30T03:36:12.968Z,96004.90
2019-01-30T03:38:39.941Z,96005.25
2019-01-30T03:41:06.879Z,96008.13
2019-01-30T03:43:33.607Z,96002.44
2019-01-30T03:46:00.281Z,95999.56
2019-01-30T03:48:27.124Z,96001.52
2019-01-30T03:50:54.395Z,96003.02
2019-01-30T03:53:21.139Z,95996.64
2019-01-30T03:55:48.454Z,96000.13
2019-01-30T03:58:16.609Z,95990.17
2019-01-30T04:00:43.427Z,95987.88
2019-01-30T04:03:10.401Z,95983.02
2019-01-30T04:05:37.265Z,95984.13
2019-01-30T04:08:03.910Z,95977.28
2019-01-30T04:10:30.627Z,95983.14
2019-01-30T04:12:57.708Z,95983.65
2019-01-30T04:15:24.397Z,95983.59
2019-01-30T04:17:51.158Z,95979.09
2019-01-30T04:20:17.867Z,95983.64
2019-01-30T04:22:44.566Z,95983.00
2019-01-30T04:25:11.578Z,95981.93
2019-01-30T04:27:38.698Z,95976.63
2019-01-30T04:30:05.690Z,95972.67
2019-01-30T04:35:17.217Z,95970.73
2019-01-30T04:37:43.865Z,95958.58
2019-01-30T04:40:15.507Z,95961.72
2019-01-30T04:42:42.228Z,95963.58
2019-01-30T04:45:09.485Z,95952.36
2019-01-30T04:47:38.669Z,95946.40
2019-01-30T04:50:07.385Z,95944.92
2019-01-30T04:52:36.391Z,95944.91
2019-01-30T04:55:03.145Z,95942.84
2019-01-30T04:57:33.590Z,95942.16
2019-01-30T05:00:00.352Z,95941.53
2019-01-30T05:02:27.708Z,95938.78
2019-01-30T05:04:54.402Z,95942.72
2019-01-30T05:07:21.180Z,95940.88
2019-01-30T05:09:48.068Z,95930.56
2019-01-30T05:12:14.787Z,95922.89
2019-01-30T05:14:41.419Z,95928.06
2019-01-30T05:17:08.288Z,95920.89
2019-01-30T05:19:34.945Z,95925.58
2019-01-30T05:22:01.618Z,95929.56
2019-01-30T05:24:28.256Z,95928.59
2019-01-30T05:26:54.892Z,95917.92
2019-01-30T05:29:21.746Z,95927.70
2019-01-30T05:31:48.669Z,95926.22
2019-01-30T05:34:15.381Z,95924.73
2019-01-30T05:36:41.975Z,95919.50
2019-01-30T05:39:08.818Z,95913.37
2019-01-30T05:41:35.778Z,95916.45
2019-01-30T05:44:02.601Z,95919.77
2019-01-30T05:46:29.289Z,95919.26
2019-01-30T05:48:56.239Z,95921.42
2019-01-30T05:51:23.024Z,95925.78
2019-01-30T05:53:50.376Z,95919.80
2019-01-30T05:56:20.218Z,95923.41
2019-01-30T05:58:49.696Z,95918.70
2019-01-30T06:01:17.569Z,95915.70
2019-01-30T06:03:44.219Z,95910.99
2019-01-30T06:06:11.035Z,95909.42
2019-01-30T06:08:37.643Z,95899.89
2019-01-30T06:11:04.588Z,95898.73
2019-01-30T06:13:31.366Z,95901.90
2019-01-30T06:15:58.518Z,95895.36
2019-01-30T06:18:25.249Z,95896.01
2019-01-30T06:20:52.465Z,95890.97
2019-01-30T06:23:19.326Z,95895.25
2019-01-30T06:25:46.300Z,95894.96
2019-01-30T06:28:12.944Z,95890.84
2019-01-30T06:30:39.680Z,95883.15
2019-01-30T06:33:06.531Z,95879.78
2019-01-30T06:35:33.569Z,95878.77
2019-01-30T06:38:00.796Z,95877.64
2019-01-30T06:40:27.886Z,95881.14
2019-01-30T06:42:54.785Z,95875.22
2019-01-30T06:45:21.841Z,95879.19
2019-01-30T06:47:49.146Z,95881.02
2019-01-30T06:50:15.794Z,95881.96
2019-01-30T06:52:43.282Z,95879.08
2019-01-30T06:55:12.772Z,95883.38
2019-01-30T06:57:40.399Z,95879.68
2019-01-30T07:00:07.167Z,95885.91
2019-01-30T07:02:34.178Z,95883.21
2019-01-30T07:05:01.400Z,95889.08
2019-01-30T07:07:28.212Z,95881.97
2019-01-30T07:09:55.192Z,95886.34
2019-01-30T07:12:22.228Z,95880.13
2019-01-30T07:14:49.931Z,95878.91
2019-01-30T07:17:16.565Z,95878.11
2019-01-30T07:19:43.297Z,95877.66
2019-01-30T07:22:10.201Z,95871.09
2019-01-30T07:24:36.801Z,95876.46
2019-01-30T07:27:03.404Z,95878.20
2019-01-30T07:29:30.057Z,95876.48
2019-01-30T07:31:56.824Z,95877.48
2019-01-30T07:34:23.452Z,95878.16
2019-01-30T07:36:50.157Z,95875.68
2019-01-30T07:39:16.853Z,95870.09
2019-01-30T07:41:43.584Z,95875.45
2019-01-30T07:44:10.504Z,95875.83
2019-01-30T07:46:37.212Z,95876.61
2019-01-30T07:49:03.871Z,95878.63
2019-01-30T07:51:30.669Z,95875.58
2019-01-30T07:53:57.646Z,95878.44
2019-01-30T07:56:24.313Z,95878.52
2019-01-30T07:58:51.191Z,95871.87
2019-01-30T08:01:17.860Z,95871.22
2019-01-30T08:03:44.880Z,95876.12
2019-01-30T08:06:11.780Z,95870.27
2019-01-30T08:08:38.468Z,95871.12
2019-01-30T08:11:07.313Z,95871.63
2019-01-30T08:13:33.719Z,95876.31
2019-01-30T08:16:00.519Z,95877.85
2019-01-30T08:18:27.502Z,95879.17
2019-01-30T08:20:54.176Z,95880.38
2019-01-30T08:23:21.427Z,95880.33
2019-01-30T08:25:48.252Z,95880.22
2019-01-30T08:28:15.934Z,95876.04
2019-01-30T08:30:43.323Z,95874.95
2019-01-30T08:33:10.218Z,95869.62
2019-01-30T08:35:38.650Z,95877.03
2019-01-30T08:41:16.606Z,95866.26
2019-01-30T08:44:17.686Z,95864.44
2019-01-30T08:46:05.316Z,95870.10
2019-01-30T08:48:41.638Z,95862.37
2019-01-30T08:54:21.141Z,95854.66
2019-01-30T08:56:39.076Z,95856.77
2019-01-30T09:05:03.011Z,95854.73
2019-01-30T09:07:44.339Z,95855.14
2019-01-30T09:18:48.040Z,95855.52
2019-01-30T09:21:43.663Z,95858.39
2019-01-30T09:26:40.520Z,95855.73
2019-01-30T09:29:33.667Z,95857.08
2019-01-30T09:32:13.903Z,95858.81
2019-01-30T09:34:53.135Z,95859.43
2019-01-30T09:38:46.307Z,95855.88
2019-01-30T09:45:55.071Z,95849.14
2019-01-30T09:48:33.866Z,95845.48
2019-01-30T09:50:59.755Z,95847.58
2019-01-30T09:53:30.249Z,95840.95
2019-01-30T09:55:57.207Z,95840.98
2019-01-30T09:58:27.008Z,95842.03
2019-01-30T10:00:53.684Z,95841.57
2019-01-30T10:03:21.576Z,95840.50
2019-01-30T10:05:48.250Z,95832.41
2019-01-30T10:08:14.923Z,95839.59
2019-01-30T10:10:41.531Z,95835.17
2019-01-30T10:13:08.443Z,95828.62
2019-01-30T10:15:35.630Z,95833.67
2019-01-30T10:18:02.381Z,95831.47
2019-01-30T10:20:29.058Z,95831.05
2019-01-30T10:22:55.772Z,95830.55
2019-01-30T10:25:24.920Z,95832.92
2019-01-30T10:27:51.928Z,95832.30
2019-01-30T10:30:20.726Z,95827.95
2019-01-30T10:32:47.717Z,95825.41
2019-01-30T10:35:15.734Z,95821.84
2019-01-30T10:37:42.654Z,95822.13
2019-01-30T10:40:09.307Z,95811.50
2019-01-30T10:42:35.955Z,95811.72
2019-01-30T10:45:02.851Z,95802.79
2019-01-30T10:47:30.080Z,95800.19
2019-01-30T10:49:56.845Z,95798.00
2019-01-30T10:52:24.086Z,95793.02
2019-01-30T10:54:52.249Z,95801.48
2019-01-30T10:57:19.043Z,95794.08
2019-01-30T10:59:46.031Z,95797.66
2019-01-30T11:02:13.052Z,95792.56
2019-01-30T11:04:40.098Z,95794.84
2019-01-30T11:07:07.061Z,95796.80
2019-01-30T11:09:34.302Z,95796.61
2019-01-30T11:12:01.141Z,95784.97
2019-01-30T11:14:28.200Z,95781.13
2019-01-30T11:16:55.182Z,95779.61
2019-01-30T11:19:22.690Z,95778.66
2019-01-30T11:21:49.370Z,95787.75
2019-01-30T11:24:16.270Z,95784.58
2019-01-30T11:26:43.001Z,95780.92
2019-01-30T11:29:10.088Z,95781.78
2019-01-30T11:31:36.788Z,95777.98
2019-01-30T11:34:07.682Z,95778.66
2019-01-30T11:36:32.093Z,95780.48
2019-01-30T11:38:58.742Z,95770.16
2019-01-30T11:41:25.960Z,95769.36
2019-01-30T11:43:53.157Z,95763.66
2019-01-30T11:46:19.816Z,95768.61
2019-01-30T11:48:56.012Z,95767.77
2019-01-30T11:51:15.378Z,95763.96
2019-01-30T11:53:42.071Z,95757.84
2019-01-30T11:56:08.857Z,95761.11
2019-01-30T11:58:35.852Z,95760.03
2019-01-30T12:01:03.553Z,95760.83
2019-01-30T12:03:30.335Z,95757.01
2019-01-30T12:05:57.183Z,95753.67
2019-01-30T12:08:24.038Z,95753.55
2019-01-30T12:10:51.081Z,95757.05
2019-01-30T12:13:18.110Z,95755.94
2019-01-30T12:15:45.028Z,95754.19
2019-01-30T12:18:11.663Z,95751.27
2019-01-30T12:20:38.398Z,95754.34
2019-01-30T12:23:05.162Z,95750.73
2019-01-30T12:25:32.144Z,95751.53
2019-01-30T12:27:59.112Z,95748.63
2019-01-30T12:30:25.833Z,95746.84
2019-01-30T12:32:53.971Z,95743.17
2019-01-30T12:35:21.013Z,95746.54
2019-01-30T12:40:16.911Z,95739.30
2019-01-30T12:42:43.577Z,95737.90
2019-01-30T12:45:10.265Z,95735.53
2019-01-30T12:47:37.758Z,95737.95
2019-01-30T12:50:04.536Z,95729.37
2019-01-30T12:52:31.739Z,95729.22
2019-01-30T12:54:58.449Z,95726.55
2019-01-30T12:57:25.788Z,95722.42
2019-01-30T12:59:54.002Z,95726.23
2019-01-30T13:02:20.732Z,95721.40
2019-01-30T13:04:47.628Z,95726.66
2019-01-30T13:07:14.509Z,95727.08
2019-01-30T13:09:41.210Z,95724.56
2019-01-30T13:12:08.071Z,95720.83
2019-01-30T13:14:34.982Z,95724.84
2019-01-30T13:17:02.173Z,95731.31
2019-01-30T13:19:28.921Z,95731.59
2019-01-30T13:21:55.922Z,95730.95
2019-01-30T13:24:24.378Z,95735.14
2019-01-30T13:26:51.008Z,95740.36
2019-01-30T13:29:17.943Z,95738.89
2019-01-30T13:31:44.708Z,95743.78
2019-01-30T13:34:11.422Z,95746.95
2019-01-30T13:36:40.120Z,95748.00
2019-01-30T13:39:06.624Z,95743.56
2019-01-30T13:41:33.343Z,95743.62
2019-01-30T13:44:00.519Z,95746.41
2019-01-30T13:46:27.416Z,95745.45
2019-01-30T13:48:54.850Z,95741.89
2019-01-30T13:51:21.503Z,95748.56
2019-01-30T13:53:48.561Z,95744.03
2019-01-30T13:56:15.420Z,95742.13
2019-01-30T13:58:42.967Z,95742.64
2019-01-30T14:01:17.177Z,95740.64
2019-01-30T14:03:38.568Z,95741.88
2019-01-30T14:06:05.671Z,95748.66
2019-01-30T14:08:32.616Z,95740.86
2019-01-30T14:10:59.550Z,95739.55
2019-01-30T14:13:26.496Z,95742.48
2019-01-30T14:15:54.558Z,95742.69
2019-01-30T14:18:21.283Z,95745.02
2019-01-30T14:20:47.917Z,95750.13
2019-01-30T14:23:14.952Z,95751.53
2019-01-30T14:25:41.856Z,95752.77
2019-01-30T14:28:08.797Z,95763.87
2019-01-30T14:30:35.509Z,95752.59
2019-01-30T14:33:02.549Z,95760.27
2019-01-30T14:35:29.208Z,95750.88
2019-01-30T14:37:56.555Z,95754.53
2019-01-30T14:40:23.265Z,95758.10
2019-01-30T14:42:50.154Z,95758.98
2019-01-30T14:45:17.264Z,95759.98
2019-01-30T14:47:43.884Z,95760.66
2019-01-30T14:50:10.624Z,95763.52
2019-01-30T14:52:37.369Z,95761.98
2019-01-30T14:55:04.314Z,95762.84
2019-01-30T14:57:30.972Z,95770.23
2019-01-30T14:59:57.765Z,95772.27
2019-01-30T15:02:26.333Z,95773.74
2019-01-30T15:04:53.372Z,95774.09
2019-01-30T15:07:28.880Z,95765.00
2019-01-30T15:09:48.548Z,95773.78
2019-01-30T15:12:15.478Z,95778.67
2019-01-30T15:14:42.272Z,95782.75
2019-01-30T15:17:08.978Z,95786.81
2019-01-30T15:19:35.747Z,95780.21
2019-01-30T15:22:02.941Z,95781.01
2019-01-30T15:24:29.736Z,95788.13
2019-01-30T15:26:56.828Z,95795.54
2019-01-30T15:29:24.060Z,95794.32
2019-01-30T15:31:50.795Z,95798.77
2019-01-30T15:34:17.626Z,95794.69
2019-01-30T15:36:44.478Z,95802.06
2019-01-30T15:39:11.332Z,95797.51
2019-01-30T15:41:38.418Z,95794.19
2019-01-30T15:44:05.457Z,95797.45
2019-01-30T15:46:32.228Z,95804.09
2019-01-30T15:48:59.225Z,95805.23
2019-01-30T15:51:26.446Z,95810.54
2019-01-30T15:53:53.038Z,95814.84
2019-01-30T15:56:20.247Z,95808.31
2019-01-30T15:58:47.153Z,95817.46
2019-01-30T16:01:14.069Z,95818.08
2019-01-30T16:03:40.776Z,95816.47
2019-01-30T16:06:07.430Z,95824.72
2019-01-30T16:08:34.293Z,95828.64
2019-01-30T16:11:01.047Z,95833.27
2019-01-30T16:13:27.994Z,95827.41
2019-01-30T16:15:54.773Z,95831.34
2019-01-30T16:18:21.595Z,95831.56
2019-01-30T16:20:48.723Z,95830.05
2019-01-30T16:23:16.360Z,95834.67
2019-01-30T16:25:43.084Z,95846.32
2019-01-30T16:28:09.856Z,95845.02
2019-01-30T16:30:36.830Z,95844.51
2019-01-30T16:33:03.792Z,95847.73
2019-01-30T16:35:30.721Z,95844.51
2019-01-30T16:37:58.947Z,95849.53
2019-01-30T16:40:30.881Z,95850.60
2019-01-30T16:42:57.912Z,95851.51
2019-01-30T16:45:30.303Z,95854.84
2019-01-30T16:48:02.203Z,95854.84
2019-01-30T16:50:29.294Z,95855.16
2019-01-30T16:52:57.851Z,95863.79
2019-01-30T16:55:25.488Z,95867.02
2019-01-30T16:58:07.360Z,95873.22
2019-01-30T17:00:23.202Z,95875.54
2019-01-30T17:02:50.143Z,95877.24
2019-01-30T17:05:16.840Z,95877.37
2019-01-30T17:07:47.063Z,95879.91
2019-01-30T17:10:13.689Z,95884.41
2019-01-30T17:12:40.519Z,95888.64
2019-01-30T17:15:08.154Z,95884.50
2019-01-30T17:17:35.761Z,95891.33
2019-01-30T17:20:02.640Z,95888.82
2019-01-30T17:22:29.525Z,95890.63
2019-01-30T17:24:57.930Z,95898.28
2019-01-30T17:27:24.659Z,95895.77
2019-01-30T17:29:52.409Z,95897.08
2019-01-30T17:32:19.056Z,95901.61
2019-01-30T17:34:46.139Z,95904.73
2019-01-30T17:37:12.815Z,95907.44
2019-01-30T17:39:39.443Z,95907.89
2019-01-30T17:42:06.365Z,95912.81
2019-01-30T17:44:33.049Z,95912.16
2019-01-30T17:47:00.115Z,95913.83
2019-01-30T17:49:28.367Z,95915.33
2019-01-30T17:51:55.057Z,95915.22
2019-01-30T17:54:22.046Z,95919.96
2019-01-30T17:56:48.773Z,95923.40
2019-01-30T17:59:15.448Z,95921.61
2019-01-30T18:01:42.494Z,95928.23
2019-01-30T18:04:09.313Z,95926.23
2019-01-30T18:06:36.194Z,95930.53
2019-01-30T18:09:02.850Z,95924.33
2019-01-30T18:11:31.564Z,95932.77
2019-01-30T18:13:59.784Z,95935.38
2019-01-30T18:16:26.931Z,95941.20
2019-01-30T18:18:55.915Z,95936.57
2019-01-30T18:21:22.536Z,95938.89
2019-01-30T18:23:49.636Z,95943.93
2019-01-30T18:26:16.539Z,95943.26
2019-01-30T18:28:43.262Z,95945.42
2019-01-30T18:31:09.983Z,95946.22
2019-01-30T18:33:36.665Z,95949.11
2019-01-30T18:36:04.637Z,95954.63
2019-01-30T18:38:31.256Z,95955.88
2019-01-30T18:41:06.201Z,95956.77
2019-01-30T18:43:32.871Z,95950.64
2019-01-30T18:46:02.091Z,95958.00
2019-01-30T18:48:30.363Z,95957.81
2019-01-30T18:50:57.120Z,95954.95
2019-01-30T18:53:24.760Z,95962.08
2019-01-30T18:55:54.558Z,95956.89
2019-01-30T18:58:22.219Z,95965.53
2019-01-30T19:00:50.436Z,95972.55
2019-01-30T19:03:17.110Z,95969.31
2019-01-30T19:05:44.108Z,95969.84
2019-01-30T19:08:11.403Z,95976.59
2019-01-30T19:10:38.509Z,95978.63
2019-01-30T19:13:05.520Z,95981.31
2019-01-30T19:15:32.432Z,95987.73
2019-01-30T19:17:59.697Z,95984.54
2019-01-30T19:20:26.401Z,95982.44
2019-01-30T19:22:53.265Z,95988.58
2019-01-30T19:25:19.881Z,95986.86
2019-01-30T19:27:46.948Z,95986.70
2019-01-30T19:30:13.588Z,95989.19
2019-01-30T19:32:47.114Z,95985.61
2019-01-30T19:35:14.504Z,95983.06
2019-01-30T19:37:41.703Z,95983.85
2019-01-30T19:40:08.383Z,95991.93
2019-01-30T19:42:35.313Z,95996.12
2019-01-30T19:45:01.919Z,95992.80
2019-01-30T19:47:31.266Z,95994.28
2019-01-30T19:49:57.855Z,95998.17
2019-01-30T19:52:24.515Z,95999.59
2019-01-30T19:54:51.139Z,95999.29
2019-01-30T19:57:18.077Z,96001.06
2019-01-30T19:59:44.837Z,95998.10
2019-01-30T20:02:11.573Z,96000.36
2019-01-30T20:04:38.302Z,96003.30
2019-01-30T20:07:14.558Z,96009.34
2019-01-30T20:09:33.544Z,96013.53
2019-01-30T20:12:00.655Z,96011.19
2019-01-30T20:14:27.227Z,96013.80
2019-01-30T20:16:53.854Z,96015.95
2019-01-30T20:19:20.442Z,96019.66
2019-01-30T20:21:47.336Z,96027.46
2019-01-30T20:24:13.994Z,96027.10
2019-01-30T20:26:40.576Z,96031.27
2019-01-30T20:29:09.448Z,96032.20
2019-01-30T20:31:36.467Z,96028.84
2019-01-30T20:34:09.942Z,96029.02
2019-01-30T20:36:31.766Z,96031.72
2019-01-30T20:38:58.390Z,96034.34
2019-01-30T20:41:25.063Z,96025.77
2019-01-30T20:43:55.977Z,96029.15
2019-01-30T20:46:23.555Z,96029.56
2019-01-30T20:51:40.937Z,96039.35
2019-01-30T20:54:09.024Z,96036.06
2019-01-30T20:56:39.328Z,96038.05
2019-01-30T20:59:20.261Z,96038.58
2019-01-30T21:01:47.518Z,96034.09
2019-01-30T21:04:14.156Z,96037.58
2019-01-30T21:06:41.161Z,96029.31
2019-01-30T21:09:08.050Z,96029.94
2019-01-30T21:11:35.015Z,96031.66
2019-01-30T21:14:01.614Z,96032.95
2019-01-30T21:16:29.109Z,96034.89
2019-01-30T21:18:55.753Z,96036.67
2019-01-30T21:21:22.376Z,96033.69
2019-01-30T21:23:49.315Z,96030.07
2019-01-30T21:26:16.181Z,96031.20
2019-01-30T21:28:42.994Z,96035.75
2019-01-30T21:31:09.730Z,96038.16
2019-01-30T21:33:36.375Z,96039.73
2019-01-30T21:36:03.181Z,96039.05
2019-01-30T21:38:31.190Z,96038.73
2019-01-30T21:40:57.898Z,96045.80
2019-01-30T21:43:24.725Z,96039.42
2019-01-30T21:45:51.552Z,96044.00
2019-01-30T21:48:18.505Z,96044.26
2019-01-30T21:50:45.164Z,96045.56
2019-01-30T21:53:11.771Z,96045.22
2019-01-30T21:55:38.656Z,96046.67
2019-01-30T21:58:05.821Z,96045.99
2019-01-30T22:00:32.893Z,96045.34
2019-01-30T22:02:59.737Z,96045.87
2019-01-30T22:05:26.737Z,96046.94
2019-01-30T22:08:00.723Z,96047.56
2019-01-30T22:10:22.052Z,96047.28
2019-01-30T22:12:48.874Z,96046.28
2019-01-30T22:15:16.091Z,96040.69
2019-01-30T22:17:43.005Z,96045.34
2019-01-30T22:20:09.955Z,96044.17
2019-01-30T22:22:36.804Z,96045.19
2019-01-30T22:25:03.444Z,96047.50
2019-01-30T22:27:30.211Z,96049.02
2019-01-30T22:29:57.102Z,96049.81
2019-01-30T22:32:23.736Z,96044.30
2019-01-30T22:34:50.489Z,96050.83
2019-01-30T22:37:17.277Z,96048.33
2019-01-30T22:39:44.243Z,96046.52
2019-01-30T22:42:11.228Z,96048.88
2019-01-30T22:44:37.860Z,96050.14
2019-01-30T22:47:04.522Z,96055.49
2019-01-30T22:49:32.820Z,96050.08
2019-01-30T22:51:59.606Z,96054.30
2019-01-30T22:54:26.450Z,96060.84
2019-01-30T22:56:53.169Z,96064.55
2019-01-30T22:59:19.906Z,96060.53
2019-01-30T23:01:46.612Z,96060.70
2019-01-30T23:04:13.731Z,96057.73
2019-01-30T23:06:40.636Z,96061.31
2019-01-30T23:09:07.550Z,96064.84
2019-01-30T23:11:34.567Z,96054.75
2019-01-30T23:14:02.418Z,96061.52
2019-01-30T23:16:29.154Z,96064.80
2019-01-30T23:18:55.835Z,96061.14
2019-01-30T23:21:22.825Z,96058.86
2019-01-30T23:23:49.437Z,96056.98
2019-01-30T23:26:16.082Z,96059.71
2019-01-30T23:28:43.300Z,96061.56
2019-01-30T23:31:10.208Z,96056.73
2019-01-30T23:33:37.098Z,96053.75
2019-01-30T23:36:04.328Z,96053.02
2019-01-30T23:38:34.299Z,96046.06
2019-01-30T23:40:59.478Z,96045.95
2019-01-30T23:43:26.341Z,96053.20
2019-01-30T23:45:53.040Z,96052.91
2019-01-30T23:48:19.661Z,96045.19
2019-01-30T23:50:46.750Z,96040.86
2019-01-30T23:53:13.675Z,96043.84
2019-01-30T23:55:40.756Z,96038.20
2019-01-30T23:58:07.821Z,96035.23
